Архив погоды в Москве ВВЦ

Метеограмма Москва ВВЦ
Пятница, 25 Мая
Время местн. Темп Ветер Видим Явления Облачность нижн/средн/верх Атм. давл. Влжн Точка росы ВНГО R Сост. почвы Tg s
Напр Скр Прв ур.ст ур.м изм
06:00 +12.7° С,С-В 2 - 10 км - облачно с прояснениями 755 770 +1.1 62% +5.7° 1 км - - - -
03:00 +14.2° С,С-В 2 - - - ясно 754 768 +0.9 82% +11.2° более 2.5 км - - - -
00:00 +16.8° С,С-В 2 - - - ясно 753 767 +0.7 63% +9.7° более 2.5 км - - - -
Четверг, 24 Мая
Время местн. Темп Ветер Видим Явления Облачность нижн/средн/верх Атм. давл. Влжн Точка росы ВНГО R Сост. почвы Tg s
Напр Скр Прв ур.ст ур.м изм
21:00 +17.1° штиль 0 - 10 км - ясно 752 766 +0.3 61% +9.6° более 2.5 км 0 - - -
18:00 +21.6° С,С-В 2 - 10 км - облачно с прояснениями 752 766 -0.2 45% +9.1° 1 км - - - -
15:00 +22.9° С 2 - 10 км - переменная облачность 752 766 -0.3 43% +9.6° 1 км - - - -
12:00 +22.3° С-В 2 - 10 км - облачно с прояснениями 753 766 -0.3 43% +9° 1 км - - - -
09:00 +20.6° В,Ю-В 2 - 10 км - переменная облачность 753 767 +0.1 51% +10° более 2.5 км 0 Влажная (без луж) +11° -
06:00 +12.7° штиль 0 - 4 км дымка переменная облачность 753 767 0 93% +11.6° - - - - -
03:00 +11.6° штиль 0 - - дымка ясно 753 767 -0.2 94% +10.6° более 2.5 км - - - -
00:00 +13.1° штиль 0 - - дымка ясно 753 767 +0.1 85% +10.6° более 2.5 км - - - -
Среда, 23 Мая
Время местн. Темп Ветер Видим Явления Облачность нижн/средн/верх Атм. давл. Влжн Точка росы ВНГО R Сост. почвы Tg s
Напр Скр Прв ур.ст ур.м изм
21:00 +17.3° штиль 0 - 10 км - незначительная облачность 753 767 +0.4 68% +11.4° более 2.5 км 0 - - -
18:00 +22° С-З 1 - 10 км - переменная облачность 753 766 -1 43% +8.7° 1 км - - - -
15:00 +21.9° С-З 1 - 10 км - преимущественно облачно 754 767 -0.6 52% +11.6° 1 км - - - -
12:00 +20.3° З,С-З 1 - 10 км - преимущественно облачно 754 768 -0.5 55% +11° 1 км - - - -
09:00 +19.4° Ю 1 - 10 км - переменная облачность 755 769 +0.2 59% +11.2° 1.5 км 0 Влажная (без луж) +11° -
06:00 +13.8° штиль 0 - 4 км дымка переменная облачность 755 769 +0.2 96% +13.1° - - - - -
03:00 +14.1° штиль 0 - - дымка переменная облачность 755 769 +0.1 88% +12.1° - - - - -
00:00 +14.6° штиль 0 - - - переменная облачность 755 769 -0.3 81% +11.3° более 2.5 км - - - -
Вторник, 22 Мая
Время местн. Темп Ветер Видим Явления Облачность нижн/средн/верх Атм. давл. Влжн Точка росы ВНГО R Сост. почвы Tg s
Напр Скр Прв ур.ст ур.м изм
21:00 +16.5° Ю-В 1 - 10 км - переменная облачность 755 769 -0.3 67% +10.4° - 0 - - -
18:00 +20.3° Ю,Ю-В 2 - 10 км - облачно с прояснениями 755 769 -0.8 50% +9.6° 1.5 км - - - -
15:00 +20.8° Ю,Ю-В 2 - 10 км - переменная облачность 756 770 -1.4 42% +7.5° - - - - -
12:00 +16° Ю-В 1 - 10 км - облачно 757 772 -0.2 50% +5.5° 1.5 км - - - -
09:00 +15.7° В 1 - 10 км - облачно с прояснениями 758 772 -0.3 51% +5.5° 1.5 км 0 Влажная (без луж) +8° -
06:00 +10.4° В,Ю-В 1 - - - ясно 758 772 +0.2 69% +5° более 2.5 км - - - -
03:00 +7.4° штиль 0 - - - ясно 758 772 +0.2 85% +5° более 2.5 км - - - -